<?xml version="1.0" encoding="UTF-8" standalone="no" ?>
<gpx xmlns="http://www.topografix.com/GPX/1/1" xmlns:xsi="http://www.w3.org/2001/XMLSchema-instance" xsi:schemaLocation="http://www.topografix.com/GPX/1/1 http://www.topografix.com/GPX/1/1/gpx.xsd" version="1.1" creator="VisuGPX - https://www.visugpx.com">
  <metadata>
    <name>Triton 2026 15kms</name>
    <desc><![CDATA[VTT 15kms encadrés]]></desc>
  </metadata>
  <wpt lat="45.39098" lon="5.61269">
    <ele>459.7</ele>
    <name><![CDATA[Ravitaillement]]></name>
    <desc><![CDATA[]]></desc>
  </wpt>
  <trk>
    <name><![CDATA[TRITON 2026 - VTT 15 Kms-23503080]]></name>
    <trkseg>
      <trkpt lat="45.41282" lon="5.55585">
        <ele>470</ele>
        <time>2026-05-25T07:47:51Z</time>
      </trkpt>
      <trkpt lat="45.41276" lon="5.55585">
        <ele>470</ele>
        <time>2026-05-25T07:47:52Z</time>
      </trkpt>
      <trkpt lat="45.41255" lon="5.55585">
        <ele>471</ele>
        <time>2026-05-25T07:47:57Z</time>
      </trkpt>
      <trkpt lat="45.41247" lon="5.55577">
        <ele>471</ele>
        <time>2026-05-25T07:48:00Z</time>
      </trkpt>
      <trkpt lat="45.41222" lon="5.55543">
        <ele>471</ele>
        <time>2026-05-25T07:48:08Z</time>
      </trkpt>
      <trkpt lat="45.41201" lon="5.55526">
        <ele>471</ele>
        <time>2026-05-25T07:48:13Z</time>
      </trkpt>
      <trkpt lat="45.412" lon="5.55524">
        <ele>471</ele>
        <time>2026-05-25T07:48:14Z</time>
      </trkpt>
      <trkpt lat="45.41205" lon="5.55512">
        <ele>471</ele>
        <time>2026-05-25T07:48:16Z</time>
      </trkpt>
      <trkpt lat="45.41197" lon="5.55507">
        <ele>471</ele>
        <time>2026-05-25T07:48:18Z</time>
      </trkpt>
      <trkpt lat="45.41189" lon="5.55495">
        <ele>471</ele>
        <time>2026-05-25T07:48:21Z</time>
      </trkpt>
      <trkpt lat="45.41188" lon="5.55496">
        <ele>471</ele>
        <time>2026-05-25T07:48:21Z</time>
      </trkpt>
      <trkpt lat="45.4118" lon="5.55507">
        <ele>471</ele>
        <time>2026-05-25T07:48:24Z</time>
      </trkpt>
      <trkpt lat="45.41148" lon="5.5555">
        <ele>472</ele>
        <time>2026-05-25T07:48:34Z</time>
      </trkpt>
      <trkpt lat="45.41135" lon="5.55535">
        <ele>471</ele>
        <time>2026-05-25T07:48:38Z</time>
      </trkpt>
      <trkpt lat="45.4113" lon="5.55543">
        <ele>472</ele>
        <time>2026-05-25T07:48:40Z</time>
      </trkpt>
      <trkpt lat="45.41129" lon="5.55545">
        <ele>472</ele>
        <time>2026-05-25T07:48:40Z</time>
      </trkpt>
      <trkpt lat="45.41129" lon="5.55545">
        <ele>472</ele>
        <time>2026-05-25T07:48:40Z</time>
      </trkpt>
      <trkpt lat="45.41025" lon="5.55683">
        <ele>476</ele>
        <time>2026-05-25T07:49:13Z</time>
      </trkpt>
      <trkpt lat="45.41028" lon="5.5569">
        <ele>476</ele>
        <time>2026-05-25T07:49:15Z</time>
      </trkpt>
      <trkpt lat="45.41036" lon="5.55698">
        <ele>476</ele>
        <time>2026-05-25T07:49:17Z</time>
      </trkpt>
      <trkpt lat="45.41033" lon="5.55709">
        <ele>477</ele>
        <time>2026-05-25T07:49:19Z</time>
      </trkpt>
      <trkpt lat="45.41039" lon="5.55713">
        <ele>477</ele>
        <time>2026-05-25T07:49:20Z</time>
      </trkpt>
      <trkpt lat="45.41035" lon="5.55725">
        <ele>477</ele>
        <time>2026-05-25T07:49:22Z</time>
      </trkpt>
      <trkpt lat="45.41032" lon="5.5573">
        <ele>478</ele>
        <time>2026-05-25T07:49:24Z</time>
      </trkpt>
      <trkpt lat="45.40994" lon="5.55724">
        <ele>480</ele>
        <time>2026-05-25T07:49:32Z</time>
      </trkpt>
      <trkpt lat="45.40985" lon="5.55756">
        <ele>482</ele>
        <time>2026-05-25T07:49:38Z</time>
      </trkpt>
      <trkpt lat="45.40984" lon="5.55763">
        <ele>482</ele>
        <time>2026-05-25T07:49:39Z</time>
      </trkpt>
      <trkpt lat="45.4098" lon="5.55774">
        <ele>483</ele>
        <time>2026-05-25T07:49:41Z</time>
      </trkpt>
      <trkpt lat="45.40976" lon="5.55787">
        <ele>484</ele>
        <time>2026-05-25T07:49:44Z</time>
      </trkpt>
      <trkpt lat="45.40975" lon="5.55796">
        <ele>484</ele>
        <time>2026-05-25T07:49:45Z</time>
      </trkpt>
      <trkpt lat="45.40978" lon="5.55852">
        <ele>485</ele>
        <time>2026-05-25T07:49:54Z</time>
      </trkpt>
      <trkpt lat="45.41009" lon="5.5586">
        <ele>483</ele>
        <time>2026-05-25T07:50:02Z</time>
      </trkpt>
      <trkpt lat="45.41013" lon="5.55868">
        <ele>483</ele>
        <time>2026-05-25T07:50:03Z</time>
      </trkpt>
      <trkpt lat="45.41006" lon="5.55886">
        <ele>483</ele>
        <time>2026-05-25T07:50:07Z</time>
      </trkpt>
      <trkpt lat="45.40996" lon="5.55912">
        <ele>483</ele>
        <time>2026-05-25T07:50:12Z</time>
      </trkpt>
      <trkpt lat="45.40989" lon="5.55932">
        <ele>483</ele>
        <time>2026-05-25T07:50:15Z</time>
      </trkpt>
      <trkpt lat="45.40981" lon="5.55961">
        <ele>482</ele>
        <time>2026-05-25T07:50:20Z</time>
      </trkpt>
      <trkpt lat="45.40963" lon="5.5601">
        <ele>480</ele>
        <time>2026-05-25T07:50:29Z</time>
      </trkpt>
      <trkpt lat="45.40966" lon="5.56044">
        <ele>480</ele>
        <time>2026-05-25T07:50:35Z</time>
      </trkpt>
      <trkpt lat="45.40952" lon="5.56058">
        <ele>479</ele>
        <time>2026-05-25T07:50:39Z</time>
      </trkpt>
      <trkpt lat="45.40956" lon="5.56066">
        <ele>479</ele>
        <time>2026-05-25T07:50:41Z</time>
      </trkpt>
      <trkpt lat="45.40962" lon="5.56087">
        <ele>479</ele>
        <time>2026-05-25T07:50:44Z</time>
      </trkpt>
      <trkpt lat="45.40958" lon="5.56117">
        <ele>482</ele>
        <time>2026-05-25T07:50:49Z</time>
      </trkpt>
      <trkpt lat="45.40962" lon="5.56133">
        <ele>483</ele>
        <time>2026-05-25T07:50:52Z</time>
      </trkpt>
      <trkpt lat="45.4097" lon="5.56153">
        <ele>485</ele>
        <time>2026-05-25T07:50:56Z</time>
      </trkpt>
      <trkpt lat="45.40985" lon="5.56184">
        <ele>486</ele>
        <time>2026-05-25T07:51:02Z</time>
      </trkpt>
      <trkpt lat="45.40988" lon="5.56191">
        <ele>487</ele>
        <time>2026-05-25T07:51:03Z</time>
      </trkpt>
      <trkpt lat="45.40985" lon="5.56194">
        <ele>487</ele>
        <time>2026-05-25T07:51:04Z</time>
      </trkpt>
      <trkpt lat="45.40982" lon="5.56196">
        <ele>487</ele>
        <time>2026-05-25T07:51:05Z</time>
      </trkpt>
      <trkpt lat="45.40966" lon="5.56165">
        <ele>486</ele>
        <time>2026-05-25T07:51:11Z</time>
      </trkpt>
      <trkpt lat="45.40958" lon="5.56162">
        <ele>486</ele>
        <time>2026-05-25T07:51:13Z</time>
      </trkpt>
      <trkpt lat="45.40908" lon="5.56214">
        <ele>489</ele>
        <time>2026-05-25T07:51:28Z</time>
      </trkpt>
      <trkpt lat="45.40904" lon="5.56219">
        <ele>489</ele>
        <time>2026-05-25T07:51:29Z</time>
      </trkpt>
      <trkpt lat="45.40891" lon="5.56217">
        <ele>488</ele>
        <time>2026-05-25T07:51:32Z</time>
      </trkpt>
      <trkpt lat="45.40888" lon="5.56218">
        <ele>488</ele>
        <time>2026-05-25T07:51:33Z</time>
      </trkpt>
      <trkpt lat="45.40885" lon="5.56223">
        <ele>488</ele>
        <time>2026-05-25T07:51:34Z</time>
      </trkpt>
      <trkpt lat="45.4085" lon="5.56276">
        <ele>490</ele>
        <time>2026-05-25T07:51:46Z</time>
      </trkpt>
      <trkpt lat="45.40837" lon="5.56305">
        <ele>490</ele>
        <time>2026-05-25T07:51:51Z</time>
      </trkpt>
      <trkpt lat="45.40748" lon="5.56448">
        <ele>492</ele>
        <time>2026-05-25T07:52:23Z</time>
      </trkpt>
      <trkpt lat="45.40739" lon="5.56453">
        <ele>492</ele>
        <time>2026-05-25T07:52:25Z</time>
      </trkpt>
      <trkpt lat="45.40718" lon="5.56501">
        <ele>493</ele>
        <time>2026-05-25T07:52:34Z</time>
      </trkpt>
      <trkpt lat="45.40699" lon="5.5656">
        <ele>493</ele>
        <time>2026-05-25T07:52:45Z</time>
      </trkpt>
      <trkpt lat="45.40695" lon="5.56607">
        <ele>494</ele>
        <time>2026-05-25T07:52:53Z</time>
      </trkpt>
      <trkpt lat="45.40695" lon="5.56675">
        <ele>497</ele>
        <time>2026-05-25T07:53:04Z</time>
      </trkpt>
      <trkpt lat="45.40694" lon="5.56715">
        <ele>501</ele>
        <time>2026-05-25T07:53:10Z</time>
      </trkpt>
      <trkpt lat="45.40679" lon="5.56754">
        <ele>504</ele>
        <time>2026-05-25T07:53:18Z</time>
      </trkpt>
      <trkpt lat="45.40644" lon="5.56827">
        <ele>511</ele>
        <time>2026-05-25T07:53:32Z</time>
      </trkpt>
      <trkpt lat="45.40639" lon="5.56837">
        <ele>511</ele>
        <time>2026-05-25T07:53:34Z</time>
      </trkpt>
      <trkpt lat="45.40627" lon="5.5687">
        <ele>514</ele>
        <time>2026-05-25T07:53:40Z</time>
      </trkpt>
      <trkpt lat="45.40619" lon="5.56877">
        <ele>513</ele>
        <time>2026-05-25T07:53:42Z</time>
      </trkpt>
      <trkpt lat="45.40608" lon="5.56897">
        <ele>513</ele>
        <time>2026-05-25T07:53:47Z</time>
      </trkpt>
      <trkpt lat="45.40606" lon="5.56899">
        <ele>513</ele>
        <time>2026-05-25T07:53:47Z</time>
      </trkpt>
      <trkpt lat="45.40605" lon="5.56895">
        <ele>513</ele>
        <time>2026-05-25T07:53:48Z</time>
      </trkpt>
      <trkpt lat="45.40606" lon="5.56899">
        <ele>513</ele>
        <time>2026-05-25T07:53:49Z</time>
      </trkpt>
      <trkpt lat="45.40579" lon="5.56934">
        <ele>512</ele>
        <time>2026-05-25T07:53:57Z</time>
      </trkpt>
      <trkpt lat="45.40548" lon="5.56965">
        <ele>514</ele>
        <time>2026-05-25T07:54:06Z</time>
      </trkpt>
      <trkpt lat="45.4052" lon="5.56998">
        <ele>514</ele>
        <time>2026-05-25T07:54:14Z</time>
      </trkpt>
      <trkpt lat="45.40497" lon="5.57022">
        <ele>513</ele>
        <time>2026-05-25T07:54:21Z</time>
      </trkpt>
      <trkpt lat="45.40401" lon="5.57103">
        <ele>506</ele>
        <time>2026-05-25T07:54:47Z</time>
      </trkpt>
      <trkpt lat="45.40366" lon="5.57143">
        <ele>505</ele>
        <time>2026-05-25T07:54:58Z</time>
      </trkpt>
      <trkpt lat="45.40327" lon="5.57196">
        <ele>503</ele>
        <time>2026-05-25T07:55:10Z</time>
      </trkpt>
      <trkpt lat="45.40304" lon="5.57226">
        <ele>503</ele>
        <time>2026-05-25T07:55:18Z</time>
      </trkpt>
      <trkpt lat="45.40248" lon="5.57377">
        <ele>503</ele>
        <time>2026-05-25T07:55:46Z</time>
      </trkpt>
      <trkpt lat="45.40212" lon="5.57469">
        <ele>506</ele>
        <time>2026-05-25T07:56:03Z</time>
      </trkpt>
      <trkpt lat="45.40189" lon="5.57534">
        <ele>507</ele>
        <time>2026-05-25T07:56:15Z</time>
      </trkpt>
      <trkpt lat="45.40167" lon="5.57585">
        <ele>505</ele>
        <time>2026-05-25T07:56:25Z</time>
      </trkpt>
      <trkpt lat="45.40148" lon="5.57637">
        <ele>506</ele>
        <time>2026-05-25T07:56:34Z</time>
      </trkpt>
      <trkpt lat="45.40144" lon="5.57688">
        <ele>509</ele>
        <time>2026-05-25T07:56:43Z</time>
      </trkpt>
      <trkpt lat="45.401" lon="5.57799">
        <ele>506</ele>
        <time>2026-05-25T07:57:03Z</time>
      </trkpt>
      <trkpt lat="45.40095" lon="5.57813">
        <ele>505</ele>
        <time>2026-05-25T07:57:06Z</time>
      </trkpt>
      <trkpt lat="45.40071" lon="5.57863">
        <ele>503</ele>
        <time>2026-05-25T07:57:16Z</time>
      </trkpt>
      <trkpt lat="45.40048" lon="5.57907">
        <ele>503</ele>
        <time>2026-05-25T07:57:25Z</time>
      </trkpt>
      <trkpt lat="45.4004" lon="5.57932">
        <ele>504</ele>
        <time>2026-05-25T07:57:29Z</time>
      </trkpt>
      <trkpt lat="45.40032" lon="5.5795">
        <ele>504</ele>
        <time>2026-05-25T07:57:33Z</time>
      </trkpt>
      <trkpt lat="45.40004" lon="5.5805">
        <ele>504</ele>
        <time>2026-05-25T07:57:51Z</time>
      </trkpt>
      <trkpt lat="45.39993" lon="5.58098">
        <ele>503</ele>
        <time>2026-05-25T07:57:59Z</time>
      </trkpt>
      <trkpt lat="45.3999" lon="5.58099">
        <ele>503</ele>
        <time>2026-05-25T07:58:00Z</time>
      </trkpt>
      <trkpt lat="45.3994" lon="5.58116">
        <ele>502</ele>
        <time>2026-05-25T07:58:12Z</time>
      </trkpt>
      <trkpt lat="45.3992" lon="5.58116">
        <ele>501</ele>
        <time>2026-05-25T07:58:16Z</time>
      </trkpt>
      <trkpt lat="45.39898" lon="5.5811">
        <ele>502</ele>
        <time>2026-05-25T07:58:22Z</time>
      </trkpt>
      <trkpt lat="45.39878" lon="5.58102">
        <ele>502</ele>
        <time>2026-05-25T07:58:26Z</time>
      </trkpt>
      <trkpt lat="45.39874" lon="5.581">
        <ele>502</ele>
        <time>2026-05-25T07:58:27Z</time>
      </trkpt>
      <trkpt lat="45.39853" lon="5.58088">
        <ele>503</ele>
        <time>2026-05-25T07:58:33Z</time>
      </trkpt>
      <trkpt lat="45.39837" lon="5.58077">
        <ele>503</ele>
        <time>2026-05-25T07:58:37Z</time>
      </trkpt>
      <trkpt lat="45.39824" lon="5.58065">
        <ele>503</ele>
        <time>2026-05-25T07:58:40Z</time>
      </trkpt>
      <trkpt lat="45.39804" lon="5.5806">
        <ele>504</ele>
        <time>2026-05-25T07:58:45Z</time>
      </trkpt>
      <trkpt lat="45.39754" lon="5.58065">
        <ele>507</ele>
        <time>2026-05-25T07:58:57Z</time>
      </trkpt>
      <trkpt lat="45.39732" lon="5.58062">
        <ele>509</ele>
        <time>2026-05-25T07:59:02Z</time>
      </trkpt>
      <trkpt lat="45.39714" lon="5.58053">
        <ele>511</ele>
        <time>2026-05-25T07:59:06Z</time>
      </trkpt>
      <trkpt lat="45.39701" lon="5.58043">
        <ele>513</ele>
        <time>2026-05-25T07:59:10Z</time>
      </trkpt>
      <trkpt lat="45.39675" lon="5.58023">
        <ele>515</ele>
        <time>2026-05-25T07:59:17Z</time>
      </trkpt>
      <trkpt lat="45.3966" lon="5.58012">
        <ele>515</ele>
        <time>2026-05-25T07:59:21Z</time>
      </trkpt>
      <trkpt lat="45.39649" lon="5.58007">
        <ele>516</ele>
        <time>2026-05-25T07:59:23Z</time>
      </trkpt>
      <trkpt lat="45.3963" lon="5.58002">
        <ele>518</ele>
        <time>2026-05-25T07:59:28Z</time>
      </trkpt>
      <trkpt lat="45.39616" lon="5.58">
        <ele>519</ele>
        <time>2026-05-25T07:59:31Z</time>
      </trkpt>
      <trkpt lat="45.39582" lon="5.58009">
        <ele>523</ele>
        <time>2026-05-25T07:59:39Z</time>
      </trkpt>
      <trkpt lat="45.39565" lon="5.58023">
        <ele>524</ele>
        <time>2026-05-25T07:59:44Z</time>
      </trkpt>
      <trkpt lat="45.3954" lon="5.58041">
        <ele>524</ele>
        <time>2026-05-25T07:59:50Z</time>
      </trkpt>
      <trkpt lat="45.39529" lon="5.58063">
        <ele>524</ele>
        <time>2026-05-25T07:59:55Z</time>
      </trkpt>
      <trkpt lat="45.39526" lon="5.58087">
        <ele>525</ele>
        <time>2026-05-25T07:59:59Z</time>
      </trkpt>
      <trkpt lat="45.39516" lon="5.58112">
        <ele>526</ele>
        <time>2026-05-25T08:00:04Z</time>
      </trkpt>
      <trkpt lat="45.39514" lon="5.58157">
        <ele>530</ele>
        <time>2026-05-25T08:00:11Z</time>
      </trkpt>
      <trkpt lat="45.39513" lon="5.58224">
        <ele>531</ele>
        <time>2026-05-25T08:00:22Z</time>
      </trkpt>
      <trkpt lat="45.39504" lon="5.58267">
        <ele>531</ele>
        <time>2026-05-25T08:00:29Z</time>
      </trkpt>
      <trkpt lat="45.39483" lon="5.58299">
        <ele>531</ele>
        <time>2026-05-25T08:00:37Z</time>
      </trkpt>
      <trkpt lat="45.39453" lon="5.58339">
        <ele>535</ele>
        <time>2026-05-25T08:00:46Z</time>
      </trkpt>
      <trkpt lat="45.39444" lon="5.58361">
        <ele>538</ele>
        <time>2026-05-25T08:00:50Z</time>
      </trkpt>
      <trkpt lat="45.39413" lon="5.58395">
        <ele>545</ele>
        <time>2026-05-25T08:00:59Z</time>
      </trkpt>
      <trkpt lat="45.39392" lon="5.58446">
        <ele>549</ele>
        <time>2026-05-25T08:01:09Z</time>
      </trkpt>
      <trkpt lat="45.39352" lon="5.58545">
        <ele>552</ele>
        <time>2026-05-25T08:01:28Z</time>
      </trkpt>
      <trkpt lat="45.39317" lon="5.58593">
        <ele>551</ele>
        <time>2026-05-25T08:01:39Z</time>
      </trkpt>
      <trkpt lat="45.39296" lon="5.58653">
        <ele>549</ele>
        <time>2026-05-25T08:01:50Z</time>
      </trkpt>
      <trkpt lat="45.39265" lon="5.58679">
        <ele>550</ele>
        <time>2026-05-25T08:01:59Z</time>
      </trkpt>
      <trkpt lat="45.39255" lon="5.58687">
        <ele>550</ele>
        <time>2026-05-25T08:02:01Z</time>
      </trkpt>
      <trkpt lat="45.39231" lon="5.5869">
        <ele>547</ele>
        <time>2026-05-25T08:02:07Z</time>
      </trkpt>
      <trkpt lat="45.39187" lon="5.58727">
        <ele>544</ele>
        <time>2026-05-25T08:02:19Z</time>
      </trkpt>
      <trkpt lat="45.39151" lon="5.58748">
        <ele>546</ele>
        <time>2026-05-25T08:02:28Z</time>
      </trkpt>
      <trkpt lat="45.39146" lon="5.5875">
        <ele>546</ele>
        <time>2026-05-25T08:02:29Z</time>
      </trkpt>
      <trkpt lat="45.39133" lon="5.58762">
        <ele>545</ele>
        <time>2026-05-25T08:02:33Z</time>
      </trkpt>
      <trkpt lat="45.39127" lon="5.58771">
        <ele>545</ele>
        <time>2026-05-25T08:02:35Z</time>
      </trkpt>
      <trkpt lat="45.39126" lon="5.5878">
        <ele>545</ele>
        <time>2026-05-25T08:02:36Z</time>
      </trkpt>
      <trkpt lat="45.39134" lon="5.58791">
        <ele>545</ele>
        <time>2026-05-25T08:02:39Z</time>
      </trkpt>
      <trkpt lat="45.39139" lon="5.58807">
        <ele>544</ele>
        <time>2026-05-25T08:02:42Z</time>
      </trkpt>
      <trkpt lat="45.39142" lon="5.58819">
        <ele>544</ele>
        <time>2026-05-25T08:02:44Z</time>
      </trkpt>
      <trkpt lat="45.39135" lon="5.58831">
        <ele>544</ele>
        <time>2026-05-25T08:02:46Z</time>
      </trkpt>
      <trkpt lat="45.39171" lon="5.58819">
        <ele>542</ele>
        <time>2026-05-25T08:02:55Z</time>
      </trkpt>
      <trkpt lat="45.39204" lon="5.58808">
        <ele>542</ele>
        <time>2026-05-25T08:03:03Z</time>
      </trkpt>
      <trkpt lat="45.39251" lon="5.58791">
        <ele>542</ele>
        <time>2026-05-25T08:03:14Z</time>
      </trkpt>
      <trkpt lat="45.39294" lon="5.58805">
        <ele>542</ele>
        <time>2026-05-25T08:03:25Z</time>
      </trkpt>
      <trkpt lat="45.39276" lon="5.58834">
        <ele>542</ele>
        <time>2026-05-25T08:03:31Z</time>
      </trkpt>
      <trkpt lat="45.39267" lon="5.58858">
        <ele>545</ele>
        <time>2026-05-25T08:03:35Z</time>
      </trkpt>
      <trkpt lat="45.39265" lon="5.58882">
        <ele>549</ele>
        <time>2026-05-25T08:03:39Z</time>
      </trkpt>
      <trkpt lat="45.39259" lon="5.58901">
        <ele>552</ele>
        <time>2026-05-25T08:03:43Z</time>
      </trkpt>
      <trkpt lat="45.39249" lon="5.58918">
        <ele>554</ele>
        <time>2026-05-25T08:03:46Z</time>
      </trkpt>
      <trkpt lat="45.39249" lon="5.58923">
        <ele>555</ele>
        <time>2026-05-25T08:03:47Z</time>
      </trkpt>
      <trkpt lat="45.39248" lon="5.58932">
        <ele>557</ele>
        <time>2026-05-25T08:03:49Z</time>
      </trkpt>
      <trkpt lat="45.39261" lon="5.58938">
        <ele>558</ele>
        <time>2026-05-25T08:03:52Z</time>
      </trkpt>
      <trkpt lat="45.39267" lon="5.5893">
        <ele>556</ele>
        <time>2026-05-25T08:03:54Z</time>
      </trkpt>
      <trkpt lat="45.39298" lon="5.58909">
        <ele>555</ele>
        <time>2026-05-25T08:04:02Z</time>
      </trkpt>
      <trkpt lat="45.39337" lon="5.5889">
        <ele>554</ele>
        <time>2026-05-25T08:04:11Z</time>
      </trkpt>
      <trkpt lat="45.39358" lon="5.58876">
        <ele>551</ele>
        <time>2026-05-25T08:04:17Z</time>
      </trkpt>
      <trkpt lat="45.39399" lon="5.58833">
        <ele>547</ele>
        <time>2026-05-25T08:04:29Z</time>
      </trkpt>
      <trkpt lat="45.39424" lon="5.58834">
        <ele>546</ele>
        <time>2026-05-25T08:04:35Z</time>
      </trkpt>
      <trkpt lat="45.39453" lon="5.58819">
        <ele>541</ele>
        <time>2026-05-25T08:04:42Z</time>
      </trkpt>
      <trkpt lat="45.39458" lon="5.58816">
        <ele>540</ele>
        <time>2026-05-25T08:04:43Z</time>
      </trkpt>
      <trkpt lat="45.39465" lon="5.58812">
        <ele>539</ele>
        <time>2026-05-25T08:04:45Z</time>
      </trkpt>
      <trkpt lat="45.39498" lon="5.58781">
        <ele>533</ele>
        <time>2026-05-25T08:04:54Z</time>
      </trkpt>
      <trkpt lat="45.39537" lon="5.58764">
        <ele>529</ele>
        <time>2026-05-25T08:05:04Z</time>
      </trkpt>
      <trkpt lat="45.39548" lon="5.58743">
        <ele>528</ele>
        <time>2026-05-25T08:05:08Z</time>
      </trkpt>
      <trkpt lat="45.39552" lon="5.58743">
        <ele>527</ele>
        <time>2026-05-25T08:05:09Z</time>
      </trkpt>
      <trkpt lat="45.39554" lon="5.58729">
        <ele>526</ele>
        <time>2026-05-25T08:05:11Z</time>
      </trkpt>
      <trkpt lat="45.39554" lon="5.58682">
        <ele>523</ele>
        <time>2026-05-25T08:05:19Z</time>
      </trkpt>
      <trkpt lat="45.39599" lon="5.58666">
        <ele>520</ele>
        <time>2026-05-25T08:05:30Z</time>
      </trkpt>
      <trkpt lat="45.39626" lon="5.58683">
        <ele>518</ele>
        <time>2026-05-25T08:05:37Z</time>
      </trkpt>
      <trkpt lat="45.3963" lon="5.5869">
        <ele>517</ele>
        <time>2026-05-25T08:05:38Z</time>
      </trkpt>
      <trkpt lat="45.39658" lon="5.58727">
        <ele>513</ele>
        <time>2026-05-25T08:05:47Z</time>
      </trkpt>
      <trkpt lat="45.39673" lon="5.58747">
        <ele>510</ele>
        <time>2026-05-25T08:05:52Z</time>
      </trkpt>
      <trkpt lat="45.39686" lon="5.58753">
        <ele>508</ele>
        <time>2026-05-25T08:05:55Z</time>
      </trkpt>
      <trkpt lat="45.39679" lon="5.5876">
        <ele>509</ele>
        <time>2026-05-25T08:05:57Z</time>
      </trkpt>
      <trkpt lat="45.39634" lon="5.58819">
        <ele>511</ele>
        <time>2026-05-25T08:06:11Z</time>
      </trkpt>
      <trkpt lat="45.39586" lon="5.58857">
        <ele>514</ele>
        <time>2026-05-25T08:06:24Z</time>
      </trkpt>
      <trkpt lat="45.39525" lon="5.58919">
        <ele>518</ele>
        <time>2026-05-25T08:06:42Z</time>
      </trkpt>
      <trkpt lat="45.39475" lon="5.58978">
        <ele>519</ele>
        <time>2026-05-25T08:06:57Z</time>
      </trkpt>
      <trkpt lat="45.39439" lon="5.59033">
        <ele>520</ele>
        <time>2026-05-25T08:07:09Z</time>
      </trkpt>
      <trkpt lat="45.39398" lon="5.59093">
        <ele>520</ele>
        <time>2026-05-25T08:07:23Z</time>
      </trkpt>
      <trkpt lat="45.39366" lon="5.59133">
        <ele>524</ele>
        <time>2026-05-25T08:07:33Z</time>
      </trkpt>
      <trkpt lat="45.39324" lon="5.59187">
        <ele>524</ele>
        <time>2026-05-25T08:07:46Z</time>
      </trkpt>
      <trkpt lat="45.39291" lon="5.59209">
        <ele>527</ele>
        <time>2026-05-25T08:07:55Z</time>
      </trkpt>
      <trkpt lat="45.39302" lon="5.59238">
        <ele>523</ele>
        <time>2026-05-25T08:08:00Z</time>
      </trkpt>
      <trkpt lat="45.39262" lon="5.5929">
        <ele>524</ele>
        <time>2026-05-25T08:08:13Z</time>
      </trkpt>
      <trkpt lat="45.39214" lon="5.5933">
        <ele>522</ele>
        <time>2026-05-25T08:08:26Z</time>
      </trkpt>
      <trkpt lat="45.39134" lon="5.59371">
        <ele>525</ele>
        <time>2026-05-25T08:08:45Z</time>
      </trkpt>
      <trkpt lat="45.39076" lon="5.59412">
        <ele>521</ele>
        <time>2026-05-25T08:09:01Z</time>
      </trkpt>
      <trkpt lat="45.3906" lon="5.59449">
        <ele>524</ele>
        <time>2026-05-25T08:09:08Z</time>
      </trkpt>
      <trkpt lat="45.39048" lon="5.5947">
        <ele>525</ele>
        <time>2026-05-25T08:09:12Z</time>
      </trkpt>
      <trkpt lat="45.3901" lon="5.59469">
        <ele>522</ele>
        <time>2026-05-25T08:09:21Z</time>
      </trkpt>
      <trkpt lat="45.38989" lon="5.59484">
        <ele>521</ele>
        <time>2026-05-25T08:09:26Z</time>
      </trkpt>
      <trkpt lat="45.38962" lon="5.59517">
        <ele>522</ele>
        <time>2026-05-25T08:09:35Z</time>
      </trkpt>
      <trkpt lat="45.38936" lon="5.59533">
        <ele>522</ele>
        <time>2026-05-25T08:09:41Z</time>
      </trkpt>
      <trkpt lat="45.38923" lon="5.59547">
        <ele>522</ele>
        <time>2026-05-25T08:09:45Z</time>
      </trkpt>
      <trkpt lat="45.38903" lon="5.59599">
        <ele>527</ele>
        <time>2026-05-25T08:09:55Z</time>
      </trkpt>
      <trkpt lat="45.38896" lon="5.59607">
        <ele>528</ele>
        <time>2026-05-25T08:09:57Z</time>
      </trkpt>
      <trkpt lat="45.38883" lon="5.59618">
        <ele>529</ele>
        <time>2026-05-25T08:10:01Z</time>
      </trkpt>
      <trkpt lat="45.38857" lon="5.59621">
        <ele>528</ele>
        <time>2026-05-25T08:10:07Z</time>
      </trkpt>
      <trkpt lat="45.38816" lon="5.59617">
        <ele>525</ele>
        <time>2026-05-25T08:10:16Z</time>
      </trkpt>
      <trkpt lat="45.38791" lon="5.59617">
        <ele>523</ele>
        <time>2026-05-25T08:10:22Z</time>
      </trkpt>
      <trkpt lat="45.38767" lon="5.59685">
        <ele>533</ele>
        <time>2026-05-25T08:10:35Z</time>
      </trkpt>
      <trkpt lat="45.38742" lon="5.59727">
        <ele>538</ele>
        <time>2026-05-25T08:10:44Z</time>
      </trkpt>
      <trkpt lat="45.38737" lon="5.59738">
        <ele>539</ele>
        <time>2026-05-25T08:10:46Z</time>
      </trkpt>
      <trkpt lat="45.38721" lon="5.59748">
        <ele>539</ele>
        <time>2026-05-25T08:10:50Z</time>
      </trkpt>
      <trkpt lat="45.38698" lon="5.59784">
        <ele>541</ele>
        <time>2026-05-25T08:10:58Z</time>
      </trkpt>
      <trkpt lat="45.38653" lon="5.5981">
        <ele>539</ele>
        <time>2026-05-25T08:11:09Z</time>
      </trkpt>
      <trkpt lat="45.38629" lon="5.59838">
        <ele>543</ele>
        <time>2026-05-25T08:11:16Z</time>
      </trkpt>
      <trkpt lat="45.38626" lon="5.59847">
        <ele>545</ele>
        <time>2026-05-25T08:11:18Z</time>
      </trkpt>
      <trkpt lat="45.38606" lon="5.59853">
        <ele>547</ele>
        <time>2026-05-25T08:11:23Z</time>
      </trkpt>
      <trkpt lat="45.38593" lon="5.59858">
        <ele>548</ele>
        <time>2026-05-25T08:11:26Z</time>
      </trkpt>
      <trkpt lat="45.38571" lon="5.59868">
        <ele>550</ele>
        <time>2026-05-25T08:11:31Z</time>
      </trkpt>
      <trkpt lat="45.38534" lon="5.59879">
        <ele>551</ele>
        <time>2026-05-25T08:11:40Z</time>
      </trkpt>
      <trkpt lat="45.38506" lon="5.59886">
        <ele>552</ele>
        <time>2026-05-25T08:11:47Z</time>
      </trkpt>
      <trkpt lat="45.38477" lon="5.59899">
        <ele>551</ele>
        <time>2026-05-25T08:11:54Z</time>
      </trkpt>
      <trkpt lat="45.38441" lon="5.59923">
        <ele>548</ele>
        <time>2026-05-25T08:12:03Z</time>
      </trkpt>
      <trkpt lat="45.38422" lon="5.59927">
        <ele>546</ele>
        <time>2026-05-25T08:12:08Z</time>
      </trkpt>
      <trkpt lat="45.38416" lon="5.59927">
        <ele>545</ele>
        <time>2026-05-25T08:12:09Z</time>
      </trkpt>
      <trkpt lat="45.38393" lon="5.59922">
        <ele>545</ele>
        <time>2026-05-25T08:12:14Z</time>
      </trkpt>
      <trkpt lat="45.38381" lon="5.59917">
        <ele>545</ele>
        <time>2026-05-25T08:12:17Z</time>
      </trkpt>
      <trkpt lat="45.38373" lon="5.5991">
        <ele>545</ele>
        <time>2026-05-25T08:12:20Z</time>
      </trkpt>
      <trkpt lat="45.3836" lon="5.59937">
        <ele>547</ele>
        <time>2026-05-25T08:12:25Z</time>
      </trkpt>
      <trkpt lat="45.38358" lon="5.59951">
        <ele>548</ele>
        <time>2026-05-25T08:12:27Z</time>
      </trkpt>
      <trkpt lat="45.38357" lon="5.59973">
        <ele>550</ele>
        <time>2026-05-25T08:12:31Z</time>
      </trkpt>
      <trkpt lat="45.38362" lon="5.60031">
        <ele>552</ele>
        <time>2026-05-25T08:12:41Z</time>
      </trkpt>
      <trkpt lat="45.38362" lon="5.60094">
        <ele>554</ele>
        <time>2026-05-25T08:12:51Z</time>
      </trkpt>
      <trkpt lat="45.38372" lon="5.60173">
        <ele>555</ele>
        <time>2026-05-25T08:13:04Z</time>
      </trkpt>
      <trkpt lat="45.38373" lon="5.60199">
        <ele>554</ele>
        <time>2026-05-25T08:13:08Z</time>
      </trkpt>
      <trkpt lat="45.38372" lon="5.6025">
        <ele>555</ele>
        <time>2026-05-25T08:13:17Z</time>
      </trkpt>
      <trkpt lat="45.38368" lon="5.60294">
        <ele>553</ele>
        <time>2026-05-25T08:13:24Z</time>
      </trkpt>
      <trkpt lat="45.38357" lon="5.60399">
        <ele>545</ele>
        <time>2026-05-25T08:13:41Z</time>
      </trkpt>
      <trkpt lat="45.38349" lon="5.6043">
        <ele>543</ele>
        <time>2026-05-25T08:13:47Z</time>
      </trkpt>
      <trkpt lat="45.38336" lon="5.60473">
        <ele>539</ele>
        <time>2026-05-25T08:13:54Z</time>
      </trkpt>
      <trkpt lat="45.38332" lon="5.60496">
        <ele>538</ele>
        <time>2026-05-25T08:13:58Z</time>
      </trkpt>
      <trkpt lat="45.38325" lon="5.60555">
        <ele>539</ele>
        <time>2026-05-25T08:14:08Z</time>
      </trkpt>
      <trkpt lat="45.38323" lon="5.6057">
        <ele>539</ele>
        <time>2026-05-25T08:14:11Z</time>
      </trkpt>
      <trkpt lat="45.38319" lon="5.60586">
        <ele>540</ele>
        <time>2026-05-25T08:14:13Z</time>
      </trkpt>
      <trkpt lat="45.38307" lon="5.60622">
        <ele>543</ele>
        <time>2026-05-25T08:14:20Z</time>
      </trkpt>
      <trkpt lat="45.38302" lon="5.60643">
        <ele>543</ele>
        <time>2026-05-25T08:14:24Z</time>
      </trkpt>
      <trkpt lat="45.38299" lon="5.60668">
        <ele>542</ele>
        <time>2026-05-25T08:14:28Z</time>
      </trkpt>
      <trkpt lat="45.38297" lon="5.60707">
        <ele>538</ele>
        <time>2026-05-25T08:14:34Z</time>
      </trkpt>
      <trkpt lat="45.38289" lon="5.60763">
        <ele>534</ele>
        <time>2026-05-25T08:14:44Z</time>
      </trkpt>
      <trkpt lat="45.38288" lon="5.60774">
        <ele>533</ele>
        <time>2026-05-25T08:14:45Z</time>
      </trkpt>
      <trkpt lat="45.38288" lon="5.60784">
        <ele>532</ele>
        <time>2026-05-25T08:14:47Z</time>
      </trkpt>
      <trkpt lat="45.38291" lon="5.60875">
        <ele>524</ele>
        <time>2026-05-25T08:15:02Z</time>
      </trkpt>
      <trkpt lat="45.38294" lon="5.60929">
        <ele>521</ele>
        <time>2026-05-25T08:15:11Z</time>
      </trkpt>
      <trkpt lat="45.38297" lon="5.61006">
        <ele>519</ele>
        <time>2026-05-25T08:15:23Z</time>
      </trkpt>
      <trkpt lat="45.38304" lon="5.61099">
        <ele>516</ele>
        <time>2026-05-25T08:15:39Z</time>
      </trkpt>
      <trkpt lat="45.38317" lon="5.6119">
        <ele>514</ele>
        <time>2026-05-25T08:15:54Z</time>
      </trkpt>
      <trkpt lat="45.38319" lon="5.61209">
        <ele>513</ele>
        <time>2026-05-25T08:15:57Z</time>
      </trkpt>
      <trkpt lat="45.38319" lon="5.61236">
        <ele>513</ele>
        <time>2026-05-25T08:16:02Z</time>
      </trkpt>
      <trkpt lat="45.38326" lon="5.61246">
        <ele>512</ele>
        <time>2026-05-25T08:16:04Z</time>
      </trkpt>
      <trkpt lat="45.38375" lon="5.61279">
        <ele>511</ele>
        <time>2026-05-25T08:16:17Z</time>
      </trkpt>
      <trkpt lat="45.3841" lon="5.61303">
        <ele>509</ele>
        <time>2026-05-25T08:16:26Z</time>
      </trkpt>
      <trkpt lat="45.3842" lon="5.61308">
        <ele>509</ele>
        <time>2026-05-25T08:16:28Z</time>
      </trkpt>
      <trkpt lat="45.38445" lon="5.61317">
        <ele>508</ele>
        <time>2026-05-25T08:16:34Z</time>
      </trkpt>
      <trkpt lat="45.38479" lon="5.61327">
        <ele>508</ele>
        <time>2026-05-25T08:16:42Z</time>
      </trkpt>
      <trkpt lat="45.38496" lon="5.61332">
        <ele>507</ele>
        <time>2026-05-25T08:16:46Z</time>
      </trkpt>
      <trkpt lat="45.38535" lon="5.61342">
        <ele>506</ele>
        <time>2026-05-25T08:16:56Z</time>
      </trkpt>
      <trkpt lat="45.38554" lon="5.61341">
        <ele>505</ele>
        <time>2026-05-25T08:17:00Z</time>
      </trkpt>
      <trkpt lat="45.38604" lon="5.61337">
        <ele>505</ele>
        <time>2026-05-25T08:17:12Z</time>
      </trkpt>
      <trkpt lat="45.38623" lon="5.61339">
        <ele>506</ele>
        <time>2026-05-25T08:17:16Z</time>
      </trkpt>
      <trkpt lat="45.3864" lon="5.61346">
        <ele>505</ele>
        <time>2026-05-25T08:17:20Z</time>
      </trkpt>
      <trkpt lat="45.38656" lon="5.61357">
        <ele>504</ele>
        <time>2026-05-25T08:17:24Z</time>
      </trkpt>
      <trkpt lat="45.38666" lon="5.61367">
        <ele>503</ele>
        <time>2026-05-25T08:17:27Z</time>
      </trkpt>
      <trkpt lat="45.38682" lon="5.61387">
        <ele>500</ele>
        <time>2026-05-25T08:17:32Z</time>
      </trkpt>
      <trkpt lat="45.38689" lon="5.61392">
        <ele>499</ele>
        <time>2026-05-25T08:17:34Z</time>
      </trkpt>
      <trkpt lat="45.38696" lon="5.61396">
        <ele>498</ele>
        <time>2026-05-25T08:17:36Z</time>
      </trkpt>
      <trkpt lat="45.38714" lon="5.61401">
        <ele>497</ele>
        <time>2026-05-25T08:17:40Z</time>
      </trkpt>
      <trkpt lat="45.38773" lon="5.6139">
        <ele>495</ele>
        <time>2026-05-25T08:17:54Z</time>
      </trkpt>
      <trkpt lat="45.3879" lon="5.61386">
        <ele>493</ele>
        <time>2026-05-25T08:17:58Z</time>
      </trkpt>
      <trkpt lat="45.38843" lon="5.61382">
        <ele>486</ele>
        <time>2026-05-25T08:18:10Z</time>
      </trkpt>
      <trkpt lat="45.38865" lon="5.61375">
        <ele>484</ele>
        <time>2026-05-25T08:18:16Z</time>
      </trkpt>
      <trkpt lat="45.38889" lon="5.61366">
        <ele>482</ele>
        <time>2026-05-25T08:18:22Z</time>
      </trkpt>
      <trkpt lat="45.38909" lon="5.61353">
        <ele>481</ele>
        <time>2026-05-25T08:18:27Z</time>
      </trkpt>
      <trkpt lat="45.38928" lon="5.61338">
        <ele>479</ele>
        <time>2026-05-25T08:18:32Z</time>
      </trkpt>
      <trkpt lat="45.38963" lon="5.61328">
        <ele>473</ele>
        <time>2026-05-25T08:18:40Z</time>
      </trkpt>
      <trkpt lat="45.39021" lon="5.61307">
        <ele>467</ele>
        <time>2026-05-25T08:18:54Z</time>
      </trkpt>
      <trkpt lat="45.39089" lon="5.61276">
        <ele>463</ele>
        <time>2026-05-25T08:19:11Z</time>
      </trkpt>
      <trkpt lat="45.39098" lon="5.61269">
        <ele>463</ele>
        <time>2026-05-25T08:19:13Z</time>
      </trkpt>
      <trkpt lat="45.391" lon="5.61267">
        <ele>463</ele>
        <time>2026-05-25T08:19:14Z</time>
      </trkpt>
      <trkpt lat="45.39154" lon="5.61167">
        <ele>472</ele>
        <time>2026-05-25T08:19:34Z</time>
      </trkpt>
      <trkpt lat="45.39163" lon="5.61136">
        <ele>477</ele>
        <time>2026-05-25T08:19:40Z</time>
      </trkpt>
      <trkpt lat="45.39194" lon="5.61078">
        <ele>484</ele>
        <time>2026-05-25T08:19:52Z</time>
      </trkpt>
      <trkpt lat="45.39263" lon="5.60973">
        <ele>490</ele>
        <time>2026-05-25T08:20:15Z</time>
      </trkpt>
      <trkpt lat="45.39283" lon="5.60955">
        <ele>492</ele>
        <time>2026-05-25T08:20:21Z</time>
      </trkpt>
      <trkpt lat="45.39342" lon="5.60928">
        <ele>487</ele>
        <time>2026-05-25T08:20:35Z</time>
      </trkpt>
      <trkpt lat="45.39367" lon="5.60921">
        <ele>487</ele>
        <time>2026-05-25T08:20:41Z</time>
      </trkpt>
      <trkpt lat="45.39397" lon="5.60909">
        <ele>487</ele>
        <time>2026-05-25T08:20:49Z</time>
      </trkpt>
      <trkpt lat="45.39414" lon="5.609">
        <ele>487</ele>
        <time>2026-05-25T08:20:53Z</time>
      </trkpt>
      <trkpt lat="45.39427" lon="5.60891">
        <ele>488</ele>
        <time>2026-05-25T08:20:56Z</time>
      </trkpt>
      <trkpt lat="45.39444" lon="5.60867">
        <ele>491</ele>
        <time>2026-05-25T08:21:02Z</time>
      </trkpt>
      <trkpt lat="45.39477" lon="5.60825">
        <ele>495</ele>
        <time>2026-05-25T08:21:12Z</time>
      </trkpt>
      <trkpt lat="45.39491" lon="5.6081">
        <ele>496</ele>
        <time>2026-05-25T08:21:16Z</time>
      </trkpt>
      <trkpt lat="45.3952" lon="5.60784">
        <ele>497</ele>
        <time>2026-05-25T08:21:24Z</time>
      </trkpt>
      <trkpt lat="45.39525" lon="5.60776">
        <ele>498</ele>
        <time>2026-05-25T08:21:26Z</time>
      </trkpt>
      <trkpt lat="45.39529" lon="5.60772">
        <ele>498</ele>
        <time>2026-05-25T08:21:27Z</time>
      </trkpt>
      <trkpt lat="45.39556" lon="5.60738">
        <ele>498</ele>
        <time>2026-05-25T08:21:36Z</time>
      </trkpt>
      <trkpt lat="45.39563" lon="5.60732">
        <ele>498</ele>
        <time>2026-05-25T08:21:38Z</time>
      </trkpt>
      <trkpt lat="45.39581" lon="5.60716">
        <ele>498</ele>
        <time>2026-05-25T08:21:42Z</time>
      </trkpt>
      <trkpt lat="45.39599" lon="5.60696">
        <ele>497</ele>
        <time>2026-05-25T08:21:48Z</time>
      </trkpt>
      <trkpt lat="45.39605" lon="5.60691">
        <ele>497</ele>
        <time>2026-05-25T08:21:49Z</time>
      </trkpt>
      <trkpt lat="45.39612" lon="5.60687">
        <ele>496</ele>
        <time>2026-05-25T08:21:51Z</time>
      </trkpt>
      <trkpt lat="45.39643" lon="5.60655">
        <ele>495</ele>
        <time>2026-05-25T08:22:00Z</time>
      </trkpt>
      <trkpt lat="45.39659" lon="5.60632">
        <ele>495</ele>
        <time>2026-05-25T08:22:05Z</time>
      </trkpt>
      <trkpt lat="45.39694" lon="5.60578">
        <ele>494</ele>
        <time>2026-05-25T08:22:17Z</time>
      </trkpt>
      <trkpt lat="45.39708" lon="5.60556">
        <ele>494</ele>
        <time>2026-05-25T08:22:22Z</time>
      </trkpt>
      <trkpt lat="45.39711" lon="5.60548">
        <ele>494</ele>
        <time>2026-05-25T08:22:24Z</time>
      </trkpt>
      <trkpt lat="45.39716" lon="5.60547">
        <ele>494</ele>
        <time>2026-05-25T08:22:25Z</time>
      </trkpt>
      <trkpt lat="45.39719" lon="5.60526">
        <ele>494</ele>
        <time>2026-05-25T08:22:29Z</time>
      </trkpt>
      <trkpt lat="45.39729" lon="5.60497">
        <ele>494</ele>
        <time>2026-05-25T08:22:34Z</time>
      </trkpt>
      <trkpt lat="45.39741" lon="5.60473">
        <ele>494</ele>
        <time>2026-05-25T08:22:39Z</time>
      </trkpt>
      <trkpt lat="45.39759" lon="5.60447">
        <ele>495</ele>
        <time>2026-05-25T08:22:45Z</time>
      </trkpt>
      <trkpt lat="45.39794" lon="5.60403">
        <ele>496</ele>
        <time>2026-05-25T08:22:56Z</time>
      </trkpt>
      <trkpt lat="45.39851" lon="5.60348">
        <ele>495</ele>
        <time>2026-05-25T08:23:12Z</time>
      </trkpt>
      <trkpt lat="45.39902" lon="5.60313">
        <ele>495</ele>
        <time>2026-05-25T08:23:25Z</time>
      </trkpt>
      <trkpt lat="45.39943" lon="5.60288">
        <ele>495</ele>
        <time>2026-05-25T08:23:35Z</time>
      </trkpt>
      <trkpt lat="45.39964" lon="5.60271">
        <ele>496</ele>
        <time>2026-05-25T08:23:41Z</time>
      </trkpt>
      <trkpt lat="45.40032" lon="5.60216">
        <ele>496</ele>
        <time>2026-05-25T08:23:59Z</time>
      </trkpt>
      <trkpt lat="45.40037" lon="5.60216">
        <ele>496</ele>
        <time>2026-05-25T08:24:00Z</time>
      </trkpt>
      <trkpt lat="45.40042" lon="5.60208">
        <ele>496</ele>
        <time>2026-05-25T08:24:02Z</time>
      </trkpt>
      <trkpt lat="45.40042" lon="5.60186">
        <ele>496</ele>
        <time>2026-05-25T08:24:06Z</time>
      </trkpt>
      <trkpt lat="45.40039" lon="5.60158">
        <ele>496</ele>
        <time>2026-05-25T08:24:10Z</time>
      </trkpt>
      <trkpt lat="45.40035" lon="5.60133">
        <ele>496</ele>
        <time>2026-05-25T08:24:15Z</time>
      </trkpt>
      <trkpt lat="45.4003" lon="5.60106">
        <ele>496</ele>
        <time>2026-05-25T08:24:19Z</time>
      </trkpt>
      <trkpt lat="45.4002" lon="5.60063">
        <ele>497</ele>
        <time>2026-05-25T08:24:27Z</time>
      </trkpt>
      <trkpt lat="45.40069" lon="5.60041">
        <ele>498</ele>
        <time>2026-05-25T08:24:39Z</time>
      </trkpt>
      <trkpt lat="45.40109" lon="5.60025">
        <ele>499</ele>
        <time>2026-05-25T08:24:48Z</time>
      </trkpt>
      <trkpt lat="45.40122" lon="5.60019">
        <ele>499</ele>
        <time>2026-05-25T08:24:51Z</time>
      </trkpt>
      <trkpt lat="45.40124" lon="5.59999">
        <ele>500</ele>
        <time>2026-05-25T08:24:55Z</time>
      </trkpt>
      <trkpt lat="45.40126" lon="5.59965">
        <ele>500</ele>
        <time>2026-05-25T08:25:00Z</time>
      </trkpt>
      <trkpt lat="45.4013" lon="5.59932">
        <ele>501</ele>
        <time>2026-05-25T08:25:06Z</time>
      </trkpt>
      <trkpt lat="45.40134" lon="5.59915">
        <ele>502</ele>
        <time>2026-05-25T08:25:09Z</time>
      </trkpt>
      <trkpt lat="45.40141" lon="5.59884">
        <ele>503</ele>
        <time>2026-05-25T08:25:14Z</time>
      </trkpt>
      <trkpt lat="45.40159" lon="5.59849">
        <ele>504</ele>
        <time>2026-05-25T08:25:21Z</time>
      </trkpt>
      <trkpt lat="45.40183" lon="5.59814">
        <ele>506</ele>
        <time>2026-05-25T08:25:29Z</time>
      </trkpt>
      <trkpt lat="45.40212" lon="5.59778">
        <ele>508</ele>
        <time>2026-05-25T08:25:38Z</time>
      </trkpt>
      <trkpt lat="45.40227" lon="5.59748">
        <ele>509</ele>
        <time>2026-05-25T08:25:44Z</time>
      </trkpt>
      <trkpt lat="45.40244" lon="5.59718">
        <ele>510</ele>
        <time>2026-05-25T08:25:51Z</time>
      </trkpt>
      <trkpt lat="45.40266" lon="5.59691">
        <ele>512</ele>
        <time>2026-05-25T08:25:57Z</time>
      </trkpt>
      <trkpt lat="45.40292" lon="5.59654">
        <ele>514</ele>
        <time>2026-05-25T08:26:06Z</time>
      </trkpt>
      <trkpt lat="45.40314" lon="5.59636">
        <ele>515</ele>
        <time>2026-05-25T08:26:12Z</time>
      </trkpt>
      <trkpt lat="45.40326" lon="5.59625">
        <ele>515</ele>
        <time>2026-05-25T08:26:15Z</time>
      </trkpt>
      <trkpt lat="45.40328" lon="5.59621">
        <ele>515</ele>
        <time>2026-05-25T08:26:16Z</time>
      </trkpt>
      <trkpt lat="45.4032" lon="5.59611">
        <ele>515</ele>
        <time>2026-05-25T08:26:19Z</time>
      </trkpt>
      <trkpt lat="45.40299" lon="5.59581">
        <ele>514</ele>
        <time>2026-05-25T08:26:25Z</time>
      </trkpt>
      <trkpt lat="45.40265" lon="5.5953">
        <ele>515</ele>
        <time>2026-05-25T08:26:37Z</time>
      </trkpt>
      <trkpt lat="45.40243" lon="5.595">
        <ele>514</ele>
        <time>2026-05-25T08:26:44Z</time>
      </trkpt>
      <trkpt lat="45.40216" lon="5.59469">
        <ele>519</ele>
        <time>2026-05-25T08:26:52Z</time>
      </trkpt>
      <trkpt lat="45.40186" lon="5.59429">
        <ele>519</ele>
        <time>2026-05-25T08:27:02Z</time>
      </trkpt>
      <trkpt lat="45.40166" lon="5.59403">
        <ele>517</ele>
        <time>2026-05-25T08:27:08Z</time>
      </trkpt>
      <trkpt lat="45.40142" lon="5.59381">
        <ele>516</ele>
        <time>2026-05-25T08:27:15Z</time>
      </trkpt>
      <trkpt lat="45.40111" lon="5.59359">
        <ele>513</ele>
        <time>2026-05-25T08:27:23Z</time>
      </trkpt>
      <trkpt lat="45.40071" lon="5.5933">
        <ele>507</ele>
        <time>2026-05-25T08:27:33Z</time>
      </trkpt>
      <trkpt lat="45.40063" lon="5.59319">
        <ele>507</ele>
        <time>2026-05-25T08:27:36Z</time>
      </trkpt>
      <trkpt lat="45.40048" lon="5.59297">
        <ele>507</ele>
        <time>2026-05-25T08:27:41Z</time>
      </trkpt>
      <trkpt lat="45.40037" lon="5.59276">
        <ele>507</ele>
        <time>2026-05-25T08:27:45Z</time>
      </trkpt>
      <trkpt lat="45.40036" lon="5.59275">
        <ele>507</ele>
        <time>2026-05-25T08:27:46Z</time>
      </trkpt>
      <trkpt lat="45.40029" lon="5.59271">
        <ele>506</ele>
        <time>2026-05-25T08:27:47Z</time>
      </trkpt>
      <trkpt lat="45.40036" lon="5.59262">
        <ele>508</ele>
        <time>2026-05-25T08:27:50Z</time>
      </trkpt>
      <trkpt lat="45.40038" lon="5.59253">
        <ele>508</ele>
        <time>2026-05-25T08:27:51Z</time>
      </trkpt>
      <trkpt lat="45.40036" lon="5.59228">
        <ele>509</ele>
        <time>2026-05-25T08:27:55Z</time>
      </trkpt>
      <trkpt lat="45.40033" lon="5.59202">
        <ele>509</ele>
        <time>2026-05-25T08:28:00Z</time>
      </trkpt>
      <trkpt lat="45.40039" lon="5.59202">
        <ele>509</ele>
        <time>2026-05-25T08:28:01Z</time>
      </trkpt>
      <trkpt lat="45.40055" lon="5.5919">
        <ele>512</ele>
        <time>2026-05-25T08:28:05Z</time>
      </trkpt>
      <trkpt lat="45.40062" lon="5.5914">
        <ele>515</ele>
        <time>2026-05-25T08:28:14Z</time>
      </trkpt>
      <trkpt lat="45.40079" lon="5.59093">
        <ele>520</ele>
        <time>2026-05-25T08:28:22Z</time>
      </trkpt>
      <trkpt lat="45.40112" lon="5.59076">
        <ele>523</ele>
        <time>2026-05-25T08:28:30Z</time>
      </trkpt>
      <trkpt lat="45.40164" lon="5.59048">
        <ele>528</ele>
        <time>2026-05-25T08:28:43Z</time>
      </trkpt>
      <trkpt lat="45.40189" lon="5.59039">
        <ele>533</ele>
        <time>2026-05-25T08:28:49Z</time>
      </trkpt>
      <trkpt lat="45.40195" lon="5.59034">
        <ele>534</ele>
        <time>2026-05-25T08:28:51Z</time>
      </trkpt>
      <trkpt lat="45.40207" lon="5.59023">
        <ele>537</ele>
        <time>2026-05-25T08:28:54Z</time>
      </trkpt>
      <trkpt lat="45.40226" lon="5.58986">
        <ele>540</ele>
        <time>2026-05-25T08:29:02Z</time>
      </trkpt>
      <trkpt lat="45.40238" lon="5.58953">
        <ele>540</ele>
        <time>2026-05-25T08:29:08Z</time>
      </trkpt>
      <trkpt lat="45.40206" lon="5.58875">
        <ele>536</ele>
        <time>2026-05-25T08:29:23Z</time>
      </trkpt>
      <trkpt lat="45.4018" lon="5.58827">
        <ele>533</ele>
        <time>2026-05-25T08:29:33Z</time>
      </trkpt>
      <trkpt lat="45.40175" lon="5.58793">
        <ele>534</ele>
        <time>2026-05-25T08:29:38Z</time>
      </trkpt>
      <trkpt lat="45.40173" lon="5.58759">
        <ele>535</ele>
        <time>2026-05-25T08:29:44Z</time>
      </trkpt>
      <trkpt lat="45.40172" lon="5.58675">
        <ele>538</ele>
        <time>2026-05-25T08:29:58Z</time>
      </trkpt>
      <trkpt lat="45.40162" lon="5.58642">
        <ele>537</ele>
        <time>2026-05-25T08:30:04Z</time>
      </trkpt>
      <trkpt lat="45.40156" lon="5.58581">
        <ele>537</ele>
        <time>2026-05-25T08:30:14Z</time>
      </trkpt>
      <trkpt lat="45.40157" lon="5.58564">
        <ele>538</ele>
        <time>2026-05-25T08:30:17Z</time>
      </trkpt>
      <trkpt lat="45.40173" lon="5.58586">
        <ele>540</ele>
        <time>2026-05-25T08:30:22Z</time>
      </trkpt>
      <trkpt lat="45.40178" lon="5.58591">
        <ele>541</ele>
        <time>2026-05-25T08:30:23Z</time>
      </trkpt>
      <trkpt lat="45.40182" lon="5.58595">
        <ele>542</ele>
        <time>2026-05-25T08:30:24Z</time>
      </trkpt>
      <trkpt lat="45.40186" lon="5.58596">
        <ele>543</ele>
        <time>2026-05-25T08:30:25Z</time>
      </trkpt>
      <trkpt lat="45.40193" lon="5.58595">
        <ele>544</ele>
        <time>2026-05-25T08:30:27Z</time>
      </trkpt>
      <trkpt lat="45.40197" lon="5.58591">
        <ele>545</ele>
        <time>2026-05-25T08:30:28Z</time>
      </trkpt>
      <trkpt lat="45.402" lon="5.58586">
        <ele>546</ele>
        <time>2026-05-25T08:30:29Z</time>
      </trkpt>
      <trkpt lat="45.40202" lon="5.58577">
        <ele>546</ele>
        <time>2026-05-25T08:30:31Z</time>
      </trkpt>
      <trkpt lat="45.40202" lon="5.58571">
        <ele>547</ele>
        <time>2026-05-25T08:30:32Z</time>
      </trkpt>
      <trkpt lat="45.40201" lon="5.58539">
        <ele>548</ele>
        <time>2026-05-25T08:30:37Z</time>
      </trkpt>
      <trkpt lat="45.40203" lon="5.5847">
        <ele>550</ele>
        <time>2026-05-25T08:30:48Z</time>
      </trkpt>
      <trkpt lat="45.40205" lon="5.58374">
        <ele>549</ele>
        <time>2026-05-25T08:31:04Z</time>
      </trkpt>
      <trkpt lat="45.40207" lon="5.58354">
        <ele>548</ele>
        <time>2026-05-25T08:31:07Z</time>
      </trkpt>
      <trkpt lat="45.4021" lon="5.5834">
        <ele>548</ele>
        <time>2026-05-25T08:31:10Z</time>
      </trkpt>
      <trkpt lat="45.40216" lon="5.58327">
        <ele>548</ele>
        <time>2026-05-25T08:31:12Z</time>
      </trkpt>
      <trkpt lat="45.40222" lon="5.58315">
        <ele>549</ele>
        <time>2026-05-25T08:31:15Z</time>
      </trkpt>
      <trkpt lat="45.40229" lon="5.58305">
        <ele>550</ele>
        <time>2026-05-25T08:31:17Z</time>
      </trkpt>
      <trkpt lat="45.40266" lon="5.58267">
        <ele>554</ele>
        <time>2026-05-25T08:31:28Z</time>
      </trkpt>
      <trkpt lat="45.40283" lon="5.5825">
        <ele>556</ele>
        <time>2026-05-25T08:31:32Z</time>
      </trkpt>
      <trkpt lat="45.40301" lon="5.58238">
        <ele>559</ele>
        <time>2026-05-25T08:31:37Z</time>
      </trkpt>
      <trkpt lat="45.40324" lon="5.58222">
        <ele>562</ele>
        <time>2026-05-25T08:31:43Z</time>
      </trkpt>
      <trkpt lat="45.40348" lon="5.58205">
        <ele>565</ele>
        <time>2026-05-25T08:31:49Z</time>
      </trkpt>
      <trkpt lat="45.40356" lon="5.582">
        <ele>566</ele>
        <time>2026-05-25T08:31:51Z</time>
      </trkpt>
      <trkpt lat="45.40402" lon="5.58182">
        <ele>570</ele>
        <time>2026-05-25T08:32:03Z</time>
      </trkpt>
      <trkpt lat="45.40409" lon="5.5818">
        <ele>570</ele>
        <time>2026-05-25T08:32:04Z</time>
      </trkpt>
      <trkpt lat="45.40415" lon="5.5818">
        <ele>571</ele>
        <time>2026-05-25T08:32:06Z</time>
      </trkpt>
      <trkpt lat="45.4044" lon="5.58191">
        <ele>577</ele>
        <time>2026-05-25T08:32:12Z</time>
      </trkpt>
      <trkpt lat="45.40478" lon="5.58193">
        <ele>584</ele>
        <time>2026-05-25T08:32:21Z</time>
      </trkpt>
      <trkpt lat="45.40478" lon="5.58185">
        <ele>584</ele>
        <time>2026-05-25T08:32:22Z</time>
      </trkpt>
      <trkpt lat="45.40473" lon="5.58177">
        <ele>583</ele>
        <time>2026-05-25T08:32:24Z</time>
      </trkpt>
      <trkpt lat="45.40467" lon="5.58167">
        <ele>581</ele>
        <time>2026-05-25T08:32:26Z</time>
      </trkpt>
      <trkpt lat="45.40445" lon="5.58145">
        <ele>578</ele>
        <time>2026-05-25T08:32:32Z</time>
      </trkpt>
      <trkpt lat="45.40435" lon="5.5812">
        <ele>578</ele>
        <time>2026-05-25T08:32:37Z</time>
      </trkpt>
      <trkpt lat="45.40404" lon="5.58054">
        <ele>576</ele>
        <time>2026-05-25T08:32:50Z</time>
      </trkpt>
      <trkpt lat="45.40374" lon="5.58012">
        <ele>573</ele>
        <time>2026-05-25T08:33:00Z</time>
      </trkpt>
      <trkpt lat="45.40348" lon="5.57972">
        <ele>571</ele>
        <time>2026-05-25T08:33:09Z</time>
      </trkpt>
      <trkpt lat="45.4034" lon="5.5795">
        <ele>572</ele>
        <time>2026-05-25T08:33:13Z</time>
      </trkpt>
      <trkpt lat="45.40341" lon="5.57926">
        <ele>575</ele>
        <time>2026-05-25T08:33:17Z</time>
      </trkpt>
      <trkpt lat="45.40341" lon="5.57915">
        <ele>576</ele>
        <time>2026-05-25T08:33:18Z</time>
      </trkpt>
      <trkpt lat="45.40381" lon="5.57812">
        <ele>576</ele>
        <time>2026-05-25T08:33:38Z</time>
      </trkpt>
      <trkpt lat="45.40432" lon="5.57715">
        <ele>572</ele>
        <time>2026-05-25T08:33:58Z</time>
      </trkpt>
      <trkpt lat="45.40423" lon="5.57699">
        <ele>568</ele>
        <time>2026-05-25T08:34:01Z</time>
      </trkpt>
      <trkpt lat="45.40402" lon="5.57681">
        <ele>564</ele>
        <time>2026-05-25T08:34:07Z</time>
      </trkpt>
      <trkpt lat="45.40402" lon="5.5768">
        <ele>564</ele>
        <time>2026-05-25T08:34:07Z</time>
      </trkpt>
      <trkpt lat="45.40401" lon="5.57675">
        <ele>564</ele>
        <time>2026-05-25T08:34:08Z</time>
      </trkpt>
      <trkpt lat="45.40482" lon="5.57567">
        <ele>559</ele>
        <time>2026-05-25T08:34:34Z</time>
      </trkpt>
      <trkpt lat="45.40518" lon="5.5751">
        <ele>560</ele>
        <time>2026-05-25T08:34:46Z</time>
      </trkpt>
      <trkpt lat="45.40518" lon="5.57494">
        <ele>559</ele>
        <time>2026-05-25T08:34:49Z</time>
      </trkpt>
      <trkpt lat="45.4051" lon="5.57446">
        <ele>555</ele>
        <time>2026-05-25T08:34:57Z</time>
      </trkpt>
      <trkpt lat="45.4051" lon="5.57376">
        <ele>553</ele>
        <time>2026-05-25T08:35:08Z</time>
      </trkpt>
      <trkpt lat="45.40514" lon="5.57308">
        <ele>552</ele>
        <time>2026-05-25T08:35:20Z</time>
      </trkpt>
      <trkpt lat="45.40518" lon="5.57281">
        <ele>552</ele>
        <time>2026-05-25T08:35:24Z</time>
      </trkpt>
      <trkpt lat="45.40523" lon="5.57232">
        <ele>548</ele>
        <time>2026-05-25T08:35:32Z</time>
      </trkpt>
      <trkpt lat="45.40526" lon="5.57216">
        <ele>546</ele>
        <time>2026-05-25T08:35:35Z</time>
      </trkpt>
      <trkpt lat="45.40528" lon="5.57208">
        <ele>545</ele>
        <time>2026-05-25T08:35:36Z</time>
      </trkpt>
      <trkpt lat="45.40531" lon="5.572">
        <ele>544</ele>
        <time>2026-05-25T08:35:38Z</time>
      </trkpt>
      <trkpt lat="45.40537" lon="5.57192">
        <ele>544</ele>
        <time>2026-05-25T08:35:40Z</time>
      </trkpt>
      <trkpt lat="45.40546" lon="5.57181">
        <ele>544</ele>
        <time>2026-05-25T08:35:42Z</time>
      </trkpt>
      <trkpt lat="45.40559" lon="5.5717">
        <ele>544</ele>
        <time>2026-05-25T08:35:46Z</time>
      </trkpt>
      <trkpt lat="45.40584" lon="5.57163">
        <ele>546</ele>
        <time>2026-05-25T08:35:52Z</time>
      </trkpt>
      <trkpt lat="45.40606" lon="5.57163">
        <ele>547</ele>
        <time>2026-05-25T08:35:57Z</time>
      </trkpt>
      <trkpt lat="45.40625" lon="5.57154">
        <ele>547</ele>
        <time>2026-05-25T08:36:02Z</time>
      </trkpt>
      <trkpt lat="45.4063" lon="5.57145">
        <ele>546</ele>
        <time>2026-05-25T08:36:04Z</time>
      </trkpt>
      <trkpt lat="45.40634" lon="5.57133">
        <ele>545</ele>
        <time>2026-05-25T08:36:06Z</time>
      </trkpt>
      <trkpt lat="45.40637" lon="5.57122">
        <ele>544</ele>
        <time>2026-05-25T08:36:08Z</time>
      </trkpt>
      <trkpt lat="45.40638" lon="5.57118">
        <ele>544</ele>
        <time>2026-05-25T08:36:08Z</time>
      </trkpt>
      <trkpt lat="45.40639" lon="5.57108">
        <ele>542</ele>
        <time>2026-05-25T08:36:10Z</time>
      </trkpt>
      <trkpt lat="45.40637" lon="5.57097">
        <ele>541</ele>
        <time>2026-05-25T08:36:12Z</time>
      </trkpt>
      <trkpt lat="45.40634" lon="5.57088">
        <ele>539</ele>
        <time>2026-05-25T08:36:14Z</time>
      </trkpt>
      <trkpt lat="45.40617" lon="5.57063">
        <ele>534</ele>
        <time>2026-05-25T08:36:19Z</time>
      </trkpt>
      <trkpt lat="45.40617" lon="5.57037">
        <ele>531</ele>
        <time>2026-05-25T08:36:24Z</time>
      </trkpt>
      <trkpt lat="45.40618" lon="5.57013">
        <ele>529</ele>
        <time>2026-05-25T08:36:28Z</time>
      </trkpt>
      <trkpt lat="45.40624" lon="5.56973">
        <ele>525</ele>
        <time>2026-05-25T08:36:34Z</time>
      </trkpt>
      <trkpt lat="45.4062" lon="5.56932">
        <ele>519</ele>
        <time>2026-05-25T08:36:41Z</time>
      </trkpt>
      <trkpt lat="45.40618" lon="5.56921">
        <ele>517</ele>
        <time>2026-05-25T08:36:43Z</time>
      </trkpt>
      <trkpt lat="45.40613" lon="5.56907">
        <ele>515</ele>
        <time>2026-05-25T08:36:45Z</time>
      </trkpt>
      <trkpt lat="45.40608" lon="5.56897">
        <ele>513</ele>
        <time>2026-05-25T08:36:47Z</time>
      </trkpt>
      <trkpt lat="45.40619" lon="5.56877">
        <ele>513</ele>
        <time>2026-05-25T08:36:52Z</time>
      </trkpt>
      <trkpt lat="45.40627" lon="5.5687">
        <ele>514</ele>
        <time>2026-05-25T08:36:54Z</time>
      </trkpt>
      <trkpt lat="45.40639" lon="5.56837">
        <ele>511</ele>
        <time>2026-05-25T08:37:00Z</time>
      </trkpt>
      <trkpt lat="45.40644" lon="5.56827">
        <ele>511</ele>
        <time>2026-05-25T08:37:02Z</time>
      </trkpt>
      <trkpt lat="45.40679" lon="5.56754">
        <ele>504</ele>
        <time>2026-05-25T08:37:16Z</time>
      </trkpt>
      <trkpt lat="45.40694" lon="5.56715">
        <ele>501</ele>
        <time>2026-05-25T08:37:24Z</time>
      </trkpt>
      <trkpt lat="45.40695" lon="5.56675">
        <ele>497</ele>
        <time>2026-05-25T08:37:30Z</time>
      </trkpt>
      <trkpt lat="45.40695" lon="5.56607">
        <ele>494</ele>
        <time>2026-05-25T08:37:41Z</time>
      </trkpt>
      <trkpt lat="45.40697" lon="5.56581">
        <ele>493</ele>
        <time>2026-05-25T08:37:46Z</time>
      </trkpt>
      <trkpt lat="45.40699" lon="5.5656">
        <ele>493</ele>
        <time>2026-05-25T08:37:49Z</time>
      </trkpt>
      <trkpt lat="45.40718" lon="5.56501">
        <ele>493</ele>
        <time>2026-05-25T08:38:00Z</time>
      </trkpt>
      <trkpt lat="45.40739" lon="5.56453">
        <ele>492</ele>
        <time>2026-05-25T08:38:09Z</time>
      </trkpt>
      <trkpt lat="45.40748" lon="5.56448">
        <ele>492</ele>
        <time>2026-05-25T08:38:11Z</time>
      </trkpt>
      <trkpt lat="45.40837" lon="5.56305">
        <ele>490</ele>
        <time>2026-05-25T08:38:43Z</time>
      </trkpt>
      <trkpt lat="45.4085" lon="5.56276">
        <ele>490</ele>
        <time>2026-05-25T08:38:48Z</time>
      </trkpt>
      <trkpt lat="45.40885" lon="5.56223">
        <ele>488</ele>
        <time>2026-05-25T08:39:00Z</time>
      </trkpt>
      <trkpt lat="45.40888" lon="5.56218">
        <ele>488</ele>
        <time>2026-05-25T08:39:01Z</time>
      </trkpt>
      <trkpt lat="45.40891" lon="5.56217">
        <ele>488</ele>
        <time>2026-05-25T08:39:02Z</time>
      </trkpt>
      <trkpt lat="45.40904" lon="5.56219">
        <ele>489</ele>
        <time>2026-05-25T08:39:05Z</time>
      </trkpt>
      <trkpt lat="45.40908" lon="5.56214">
        <ele>489</ele>
        <time>2026-05-25T08:39:06Z</time>
      </trkpt>
      <trkpt lat="45.40958" lon="5.56162">
        <ele>486</ele>
        <time>2026-05-25T08:39:21Z</time>
      </trkpt>
      <trkpt lat="45.40966" lon="5.56165">
        <ele>486</ele>
        <time>2026-05-25T08:39:23Z</time>
      </trkpt>
      <trkpt lat="45.40982" lon="5.56196">
        <ele>487</ele>
        <time>2026-05-25T08:39:29Z</time>
      </trkpt>
      <trkpt lat="45.40985" lon="5.56194">
        <ele>487</ele>
        <time>2026-05-25T08:39:30Z</time>
      </trkpt>
      <trkpt lat="45.40988" lon="5.56191">
        <ele>487</ele>
        <time>2026-05-25T08:39:31Z</time>
      </trkpt>
      <trkpt lat="45.40985" lon="5.56184">
        <ele>486</ele>
        <time>2026-05-25T08:39:32Z</time>
      </trkpt>
      <trkpt lat="45.4097" lon="5.56153">
        <ele>485</ele>
        <time>2026-05-25T08:39:38Z</time>
      </trkpt>
      <trkpt lat="45.40962" lon="5.56133">
        <ele>483</ele>
        <time>2026-05-25T08:39:42Z</time>
      </trkpt>
      <trkpt lat="45.40958" lon="5.56117">
        <ele>482</ele>
        <time>2026-05-25T08:39:45Z</time>
      </trkpt>
      <trkpt lat="45.40962" lon="5.56087">
        <ele>479</ele>
        <time>2026-05-25T08:39:50Z</time>
      </trkpt>
      <trkpt lat="45.40956" lon="5.56066">
        <ele>479</ele>
        <time>2026-05-25T08:39:53Z</time>
      </trkpt>
      <trkpt lat="45.40952" lon="5.56058">
        <ele>479</ele>
        <time>2026-05-25T08:39:55Z</time>
      </trkpt>
      <trkpt lat="45.40966" lon="5.56044">
        <ele>480</ele>
        <time>2026-05-25T08:39:59Z</time>
      </trkpt>
      <trkpt lat="45.40963" lon="5.5601">
        <ele>480</ele>
        <time>2026-05-25T08:40:05Z</time>
      </trkpt>
      <trkpt lat="45.40981" lon="5.55961">
        <ele>482</ele>
        <time>2026-05-25T08:40:14Z</time>
      </trkpt>
      <trkpt lat="45.40989" lon="5.55932">
        <ele>483</ele>
        <time>2026-05-25T08:40:19Z</time>
      </trkpt>
      <trkpt lat="45.40996" lon="5.55912">
        <ele>483</ele>
        <time>2026-05-25T08:40:23Z</time>
      </trkpt>
      <trkpt lat="45.41006" lon="5.55886">
        <ele>483</ele>
        <time>2026-05-25T08:40:27Z</time>
      </trkpt>
      <trkpt lat="45.41013" lon="5.55868">
        <ele>483</ele>
        <time>2026-05-25T08:40:31Z</time>
      </trkpt>
      <trkpt lat="45.41009" lon="5.5586">
        <ele>483</ele>
        <time>2026-05-25T08:40:32Z</time>
      </trkpt>
      <trkpt lat="45.40978" lon="5.55852">
        <ele>485</ele>
        <time>2026-05-25T08:40:40Z</time>
      </trkpt>
      <trkpt lat="45.40975" lon="5.55796">
        <ele>484</ele>
        <time>2026-05-25T08:40:49Z</time>
      </trkpt>
      <trkpt lat="45.40976" lon="5.55787">
        <ele>484</ele>
        <time>2026-05-25T08:40:50Z</time>
      </trkpt>
      <trkpt lat="45.4098" lon="5.55774">
        <ele>483</ele>
        <time>2026-05-25T08:40:53Z</time>
      </trkpt>
      <trkpt lat="45.40984" lon="5.55763">
        <ele>482</ele>
        <time>2026-05-25T08:40:55Z</time>
      </trkpt>
      <trkpt lat="45.40985" lon="5.55756">
        <ele>482</ele>
        <time>2026-05-25T08:40:56Z</time>
      </trkpt>
      <trkpt lat="45.40994" lon="5.55724">
        <ele>480</ele>
        <time>2026-05-25T08:41:02Z</time>
      </trkpt>
      <trkpt lat="45.41032" lon="5.5573">
        <ele>478</ele>
        <time>2026-05-25T08:41:11Z</time>
      </trkpt>
      <trkpt lat="45.41035" lon="5.55725">
        <ele>477</ele>
        <time>2026-05-25T08:41:12Z</time>
      </trkpt>
      <trkpt lat="45.41039" lon="5.55713">
        <ele>477</ele>
        <time>2026-05-25T08:41:14Z</time>
      </trkpt>
      <trkpt lat="45.41033" lon="5.55709">
        <ele>477</ele>
        <time>2026-05-25T08:41:15Z</time>
      </trkpt>
      <trkpt lat="45.41036" lon="5.55698">
        <ele>476</ele>
        <time>2026-05-25T08:41:17Z</time>
      </trkpt>
      <trkpt lat="45.41028" lon="5.5569">
        <ele>476</ele>
        <time>2026-05-25T08:41:20Z</time>
      </trkpt>
      <trkpt lat="45.41025" lon="5.55683">
        <ele>476</ele>
        <time>2026-05-25T08:41:21Z</time>
      </trkpt>
      <trkpt lat="45.41059" lon="5.55637">
        <ele>473</ele>
        <time>2026-05-25T08:41:32Z</time>
      </trkpt>
      <trkpt lat="45.41129" lon="5.55545">
        <ele>472</ele>
        <time>2026-05-25T08:41:54Z</time>
      </trkpt>
      <trkpt lat="45.41129" lon="5.55545">
        <ele>472</ele>
        <time>2026-05-25T08:41:54Z</time>
      </trkpt>
      <trkpt lat="45.4113" lon="5.55543">
        <ele>472</ele>
        <time>2026-05-25T08:41:55Z</time>
      </trkpt>
      <trkpt lat="45.41135" lon="5.55535">
        <ele>471</ele>
        <time>2026-05-25T08:41:56Z</time>
      </trkpt>
      <trkpt lat="45.41148" lon="5.5555">
        <ele>472</ele>
        <time>2026-05-25T08:42:00Z</time>
      </trkpt>
      <trkpt lat="45.4118" lon="5.55507">
        <ele>471</ele>
        <time>2026-05-25T08:42:10Z</time>
      </trkpt>
      <trkpt lat="45.41188" lon="5.55496">
        <ele>471</ele>
        <time>2026-05-25T08:42:13Z</time>
      </trkpt>
      <trkpt lat="45.41189" lon="5.55495">
        <ele>471</ele>
        <time>2026-05-25T08:42:13Z</time>
      </trkpt>
      <trkpt lat="45.41197" lon="5.55507">
        <ele>471</ele>
        <time>2026-05-25T08:42:16Z</time>
      </trkpt>
      <trkpt lat="45.41205" lon="5.55512">
        <ele>471</ele>
        <time>2026-05-25T08:42:18Z</time>
      </trkpt>
      <trkpt lat="45.412" lon="5.55524">
        <ele>471</ele>
        <time>2026-05-25T08:42:20Z</time>
      </trkpt>
      <trkpt lat="45.41201" lon="5.55526">
        <ele>471</ele>
        <time>2026-05-25T08:42:21Z</time>
      </trkpt>
      <trkpt lat="45.41222" lon="5.55543">
        <ele>471</ele>
        <time>2026-05-25T08:42:26Z</time>
      </trkpt>
      <trkpt lat="45.41247" lon="5.55577">
        <ele>471</ele>
        <time>2026-05-25T08:42:34Z</time>
      </trkpt>
      <trkpt lat="45.41255" lon="5.55585">
        <ele>471</ele>
        <time>2026-05-25T08:42:37Z</time>
      </trkpt>
      <trkpt lat="45.41276" lon="5.55585">
        <ele>470</ele>
        <time>2026-05-25T08:42:42Z</time>
      </trkpt>
    </trkseg>
  </trk>
</gpx>